Time;durP1;ratioP1;P1;durP2;ratioP2;P2;SDS_P1;SDS_P2;PMS_P1;PMS_P2;Temp;Humidity;BMP_temperature;BMP_pressure;BME280_temperature;BME280_humidity;BME280_pressure;Samples;Min_cycle;Max_cycle;Signal;HPM_P1;HPM_P2
2022/09/15 00:00:45;;;;;;;11.00;7.70;;;13.00;99.90;;;;;;5012260;28;20033;-44
2022/09/15 00:03:11;;;;;;;16.70;8.20;;;12.90;99.90;;;;;;5012724;28;20135;-57
2022/09/15 00:05:37;;;;;;;13.00;8.50;;;13.00;99.90;;;;;;5012346;28;20508;-49
2022/09/15 00:08:03;;;;;;;12.68;8.23;;;13.00;99.90;;;;;;5012555;28;20053;-51
2022/09/15 00:10:28;;;;;;;11.18;8.02;;;13.00;99.90;;;;;;5012175;28;20046;-53
2022/09/15 00:12:55;;;;;;;11.30;8.23;;;13.00;99.90;;;;;;5012012;28;20021;-52
2022/09/15 00:15:21;;;;;;;14.77;8.65;;;13.00;99.90;;;;;;5012387;28;20025;-45
2022/09/15 00:17:49;;;;;;;12.50;8.10;;;13.00;99.90;;;;;;5012225;28;20497;-46
2022/09/15 00:20:16;;;;;;;12.15;8.43;;;13.00;99.90;;;;;;5012226;28;20092;-46
2022/09/15 00:22:42;;;;;;;11.38;8.40;;;13.00;99.90;;;;;;5012154;28;20021;-48
2022/09/15 00:25:09;;;;;;;14.00;8.82;;;12.90;99.90;;;;;;5012293;28;20025;-46
2022/09/15 00:27:34;;;;;;;15.35;9.13;;;13.00;99.90;;;;;;5011972;28;20022;-43
2022/09/15 00:30:01;;;;;;;13.65;8.85;;;13.00;99.90;;;;;;5012167;28;20036;-49
2022/09/15 00:32:26;;;;;;;12.70;8.77;;;13.00;99.90;;;;;;5012093;28;20034;-49
2022/09/15 00:34:52;;;;;;;11.65;8.38;;;13.00;99.90;;;;;;5011995;28;20171;-43
2022/09/15 00:37:18;;;;;;;12.75;8.23;;;13.00;99.90;;;;;;5012444;28;20507;-46
2022/09/15 00:39:44;;;;;;;10.77;8.02;;;12.90;99.90;;;;;;5011881;28;20511;-42
2022/09/15 00:42:14;;;;;;;14.07;8.40;;;12.90;99.90;;;;;;5011947;28;20030;-43
2022/09/15 00:44:49;;;;;;;13.18;9.45;;;13.00;99.90;;;;;;5011942;28;20022;-48
2022/09/15 00:47:15;;;;;;;14.80;8.35;;;12.90;99.90;;;;;;5012007;28;20026;-46
2022/09/15 00:49:42;;;;;;;14.63;8.48;;;12.90;99.90;;;;;;5011989;28;20034;-47
2022/09/15 00:52:10;;;;;;;14.10;8.90;;;12.90;99.90;;;;;;5007746;28;20049;-51
2022/09/15 00:54:55;;;;;;;12.88;8.25;;;12.90;99.90;;;;;;5002752;28;20046;-54
2022/09/15 00:57:45;;;;;;;14.07;8.68;;;12.90;99.90;;;;;;5011424;28;20073;-56
2022/09/15 01:00:15;;;;;;;15.50;10.20;;;12.90;99.90;;;;;;5011435;28;20038;-49
2022/09/15 01:02:42;;;;;;;16.05;9.02;;;12.80;99.90;;;;;;5011621;28;20096;-50
2022/09/15 01:05:10;;;;;;;14.60;8.90;;;12.80;99.90;;;;;;5011540;28;20033;-48
2022/09/15 01:07:47;;;;;;;22.45;9.57;;;12.80;99.90;;;;;;5011578;28;20026;-52
2022/09/15 01:10:37;;;;;;;18.65;8.50;;;12.80;99.90;;;;;;5011393;28;20116;-49
2022/09/15 01:13:09;;;;;;;17.75;9.50;;;12.80;99.90;;;;;;4993356;28;20037;-44
2022/09/15 01:15:55;;;;;;;13.68;8.93;;;12.80;99.90;;;;;;5011484;28;20069;-50
2022/09/15 01:18:27;;;;;;;15.55;9.85;;;12.70;99.90;;;;;;5011535;28;20061;-49
2022/09/15 01:20:52;;;;;;;13.18;8.68;;;12.70;99.90;;;;;;5011085;28;20041;-46
2022/09/15 01:23:36;;;;;;;15.13;9.52;;;12.80;99.90;;;;;;5011456;28;20192;-44
2022/09/15 01:26:35;;;;;;;14.90;9.55;;;12.70;99.90;;;;;;5011258;28;20021;-51
2022/09/15 01:29:38;;;;;;;13.00;8.23;;;12.70;99.90;;;;;;5011095;28;20057;-48
2022/09/15 01:35:21;;;;;;;14.75;9.77;;;12.60;99.90;;;;;;5011531;28;20037;-45
2022/09/15 01:37:56;;;;;;;17.65;9.35;;;12.70;99.90;;;;;;5011132;28;20114;-52
2022/09/15 01:40:25;;;;;;;12.65;9.00;;;12.70;99.90;;;;;;5011219;28;20037;-47
2022/09/15 01:42:52;;;;;;;14.80;8.73;;;12.60;99.90;;;;;;5010888;28;20466;-48
2022/09/15 01:45:27;;;;;;;11.55;8.27;;;12.60;99.90;;;;;;5008341;28;20046;-48
2022/09/15 01:47:56;;;;;;;17.30;9.60;;;12.60;99.90;;;;;;5000827;28;20112;-49
2022/09/15 01:50:27;;;;;;;15.32;9.10;;;12.60;99.90;;;;;;4991593;28;20038;-52
2022/09/15 01:52:56;;;;;;;12.75;8.90;;;12.60;99.90;;;;;;4995098;28;20034;-51
2022/09/15 01:55:44;;;;;;;14.27;8.83;;;12.60;99.90;;;;;;5007974;28;20049;-50
2022/09/15 01:58:10;;;;;;;13.68;9.57;;;12.50;99.90;;;;;;5002516;28;20366;-46
2022/09/15 02:00:40;;;;;;;13.95;9.10;;;12.40;99.90;;;;;;5010561;28;20041;-45
2022/09/15 02:03:36;;;;;;;13.40;8.40;;;12.40;99.90;;;;;;5010994;28;20481;-45
2022/09/15 02:06:09;;;;;;;14.25;8.95;;;12.40;99.90;;;;;;5010718;28;20038;-50
2022/09/15 02:08:46;;;;;;;14.73;9.13;;;12.30;99.90;;;;;;5010930;28;20470;-47
2022/09/15 02:11:25;;;;;;;16.02;10.15;;;12.40;99.90;;;;;;5010674;28;20516;-46
2022/09/15 02:14:10;;;;;;;15.43;9.05;;;12.30;99.90;;;;;;5010882;28;20037;-45
2022/09/15 02:16:39;;;;;;;14.13;9.18;;;12.40;99.90;;;;;;5010716;28;20045;-51
2022/09/15 02:19:14;;;;;;;13.93;9.13;;;12.40;99.90;;;;;;5010682;28;20549;-49
2022/09/15 02:22:06;;;;;;;13.93;9.05;;;12.40;99.90;;;;;;5010746;28;20308;-48
2022/09/15 02:24:44;;;;;;;12.80;9.13;;;12.40;99.90;;;;;;4986327;28;20500;-52
2022/09/15 02:27:16;;;;;;;15.98;9.40;;;12.40;99.90;;;;;;5010581;28;20057;-51
2022/09/15 02:29:45;;;;;;;14.18;8.63;;;12.40;99.90;;;;;;5010522;28;20041;-50
2022/09/15 02:32:14;;;;;;;13.13;8.52;;;12.40;99.90;;;;;;5010614;28;20030;-47
2022/09/15 02:34:44;;;;;;;12.98;8.77;;;12.40;99.90;;;;;;5010411;28;20034;-46
2022/09/15 02:37:11;;;;;;;14.73;8.98;;;12.40;99.90;;;;;;5012939;28;20029;-52
2022/09/15 02:39:42;;;;;;;13.10;7.93;;;12.40;99.90;;;;;;5014068;28;20112;-50
2022/09/15 02:42:09;;;;;;;13.82;8.93;;;12.50;99.90;;;;;;5013962;28;20053;-51
2022/09/15 02:44:34;;;;;;;14.70;8.55;;;12.50;99.90;;;;;;5014236;28;20021;-48
2022/09/15 02:47:01;;;;;;;13.52;8.52;;;12.50;99.90;;;;;;5014165;28;20026;-50
2022/09/15 02:49:27;;;;;;;14.20;8.95;;;12.50;99.90;;;;;;5014043;28;20033;-47
2022/09/15 02:51:53;;;;;;;13.90;8.23;;;12.50;99.90;;;;;;5011681;28;20029;-48
2022/09/15 02:54:19;;;;;;;13.88;8.70;;;12.50;99.90;;;;;;5002455;28;20029;-49
2022/09/15 02:56:45;;;;;;;15.88;8.10;;;12.60;99.90;;;;;;5013577;28;20417;-50
2022/09/15 02:59:11;;;;;;;15.13;8.82;;;12.50;99.90;;;;;;5013934;28;20017;-45
2022/09/15 03:01:37;;;;;;;11.90;8.60;;;12.50;99.90;;;;;;5013497;28;20513;-46
2022/09/15 03:04:03;;;;;;;12.48;8.50;;;12.60;99.90;;;;;;4997719;28;20030;-46
2022/09/15 03:06:33;;;;;;;13.45;8.40;;;12.60;99.90;;;;;;5013685;28;20057;-48
2022/09/15 03:09:00;;;;;;;;;;;12.60;99.90;;;;;;5013839;28;20045;-54
2022/09/15 03:11:27;;;;;;;12.25;7.88;;;12.60;99.90;;;;;;5013338;28;19963;-44
2022/09/15 03:13:54;;;;;;;15.20;9.38;;;12.60;99.90;;;;;;5013495;28;20037;-45
2022/09/15 03:16:20;;;;;;;12.48;8.63;;;12.70;99.90;;;;;;5013614;28;20022;-44
2022/09/15 03:18:47;;;;;;;12.25;8.48;;;12.70;99.90;;;;;;5013548;28;20465;-50
2022/09/15 03:21:15;;;;;;;16.35;8.52;;;12.70;99.90;;;;;;5013338;28;20520;-48
2022/09/15 03:23:41;;;;;;;14.23;8.88;;;12.60;99.90;;;;;;5013417;28;20133;-46
2022/09/15 03:26:08;;;;;;;13.13;8.50;;;12.60;99.90;;;;;;5013262;28;20022;-50
2022/09/15 03:28:34;;;;;;;17.05;9.25;;;12.70;99.90;;;;;;5013433;28;20485;-45
2022/09/15 03:31:01;;;;;;;12.35;8.77;;;12.70;99.90;;;;;;5013282;28;20108;-49
2022/09/15 03:33:26;;;;;;;17.05;9.45;;;12.70;99.90;;;;;;5013418;28;20095;-45
2022/09/15 03:35:52;;;;;;;12.05;8.75;;;12.70;99.90;;;;;;5013083;28;20369;-50
2022/09/15 03:38:19;;;;;;;14.38;9.07;;;12.70;99.90;;;;;;5013135;28;20045;-50
2022/09/15 03:40:56;;;;;;;13.85;9.48;;;12.70;99.90;;;;;;5012861;28;20041;-51
2022/09/15 03:43:21;;;;;;;14.10;8.95;;;12.80;99.90;;;;;;5001622;28;20549;-48
2022/09/15 03:45:47;;;;;;;14.45;9.07;;;12.80;99.90;;;;;;4998275;28;20121;-49
2022/09/15 03:48:13;;;;;;;16.27;9.30;;;12.80;99.90;;;;;;4999000;28;20026;-51
2022/09/15 03:50:38;;;;;;;16.45;9.57;;;12.80;99.90;;;;;;5007271;28;20109;-50
2022/09/15 03:53:04;;;;;;;14.07;9.32;;;12.80;99.90;;;;;;5004802;28;20018;-51
2022/09/15 03:55:30;;;;;;;13.95;9.38;;;12.90;99.90;;;;;;5012949;28;20382;-47
2022/09/15 03:57:55;;;;;;;17.75;9.20;;;12.90;99.90;;;;;;5012971;28;20480;-51
2022/09/15 04:00:22;;;;;;;13.50;9.65;;;12.90;99.90;;;;;;4998596;28;20096;-45
2022/09/15 04:02:47;;;;;;;15.00;9.35;;;12.90;99.90;;;;;;5012744;28;20032;-52
2022/09/15 04:05:13;;;;;;;14.45;8.98;;;12.90;99.90;;;;;;5012527;28;20025;-45
2022/09/15 04:07:39;;;;;;;18.55;10.00;;;12.90;99.90;;;;;;5012747;28;20022;-48
2022/09/15 04:10:06;;;;;;;15.05;9.50;;;12.90;99.90;;;;;;5012593;28;20140;-46
2022/09/15 04:12:33;;;;;;;16.77;9.88;;;13.00;99.90;;;;;;5012197;28;20017;-45
2022/09/15 04:14:59;;;;;;;14.60;9.50;;;13.00;99.90;;;;;;5012518;28;20037;-49
2022/09/15 04:17:25;;;;;;;13.43;8.90;;;13.00;99.90;;;;;;4998592;28;20074;-49
2022/09/15 04:19:50;;;;;;;14.77;9.23;;;13.00;99.90;;;;;;5012333;28;20080;-52
2022/09/15 04:22:16;;;;;;;15.02;9.15;;;13.00;99.90;;;;;;5012311;28;20040;-45
2022/09/15 04:24:41;;;;;;;14.30;9.25;;;13.00;99.90;;;;;;4994708;28;20022;-52
2022/09/15 04:27:07;;;;;;;16.20;9.02;;;13.00;99.90;;;;;;5012269;28;20075;-44
2022/09/15 04:29:33;;;;;;;15.00;8.48;;;13.00;99.90;;;;;;5012226;28;20458;-44
2022/09/15 04:31:58;;;;;;;12.30;8.60;;;13.00;99.90;;;;;;5012386;28;20057;-43
2022/09/15 04:34:24;;;;;;;11.50;8.10;;;13.00;99.90;;;;;;4994563;28;20447;-44
2022/09/15 04:36:49;;;;;;;12.43;8.48;;;13.00;99.90;;;;;;5012452;28;20076;-48
2022/09/15 04:39:15;;;;;;;12.88;8.27;;;13.00;99.90;;;;;;5012165;28;20029;-44
2022/09/15 04:41:41;;;;;;;15.27;8.40;;;13.00;99.90;;;;;;5011715;28;20042;-49
2022/09/15 04:44:07;;;;;;;13.57;7.75;;;13.00;99.90;;;;;;5011987;28;20036;-47
2022/09/15 04:46:32;;;;;;;11.25;8.00;;;13.00;99.90;;;;;;4994399;28;20022;-50
2022/09/15 04:48:58;;;;;;;13.05;8.82;;;13.00;99.90;;;;;;5011864;28;20022;-54
2022/09/15 04:51:24;;;;;;;11.48;8.50;;;13.00;99.90;;;;;;4997900;28;20054;-47
2022/09/15 04:53:50;;;;;;;10.73;8.32;;;13.00;99.90;;;;;;5012036;28;20026;-47
2022/09/15 04:56:22;;;;;;;16.73;8.48;;;13.00;99.90;;;;;;5011750;28;20114;-52
2022/09/15 04:58:56;;;;;;;14.40;8.57;;;13.00;99.90;;;;;;5011391;28;20507;-50
2022/09/15 05:01:25;;;;;;;11.40;8.23;;;13.00;99.90;;;;;;5011607;28;20038;-46
2022/09/15 05:03:51;;;;;;;13.03;8.20;;;13.00;99.90;;;;;;5011515;28;20065;-46
2022/09/15 05:06:21;;;;;;;13.35;8.82;;;13.00;99.90;;;;;;5011339;28;20662;-48
2022/09/15 05:08:51;;;;;;;23.33;8.63;;;12.90;99.90;;;;;;5004470;28;20521;-48
2022/09/15 05:11:18;;;;;;;10.95;8.18;;;13.00;99.90;;;;;;4998842;28;20042;-45
2022/09/15 05:13:44;;;;;;;13.57;9.05;;;13.00;99.90;;;;;;4996289;28;20084;-48
2022/09/15 05:16:16;;;;;;;13.20;8.57;;;13.00;99.90;;;;;;4991701;28;20050;-44
2022/09/15 05:18:44;;;;;;;14.63;8.60;;;13.00;99.90;;;;;;4991856;28;20038;-52
2022/09/15 05:21:12;;;;;;;13.32;8.07;;;13.10;99.90;;;;;;4991668;28;20125;-44
2022/09/15 05:23:38;;;;;;;15.00;8.52;;;13.10;99.90;;;;;;4991744;28;20022;-47
2022/09/15 05:26:06;;;;;;;13.25;8.52;;;13.10;99.90;;;;;;4992099;28;20360;-44
2022/09/15 05:28:33;;;;;;;13.32;8.15;;;13.10;99.90;;;;;;4991584;28;20037;-48
2022/09/15 05:30:59;;;;;;;11.90;8.50;;;13.00;99.90;;;;;;4991588;28;20123;-46
2022/09/15 05:33:25;;;;;;;15.65;8.80;;;13.10;99.90;;;;;;4991643;28;20102;-43
2022/09/15 05:35:56;;;;;;;12.50;8.43;;;13.10;99.90;;;;;;4991514;28;20036;-47
2022/09/15 05:38:22;;;;;;;19.38;9.43;;;13.10;99.90;;;;;;4991484;28;20014;-53
2022/09/15 05:40:49;;;;;;;13.02;8.70;;;13.10;99.90;;;;;;4991813;28;20386;-51
2022/09/15 05:43:16;;;;;;;13.73;9.07;;;13.10;99.90;;;;;;4991439;28;20478;-46
2022/09/15 05:45:42;;;;;;;14.77;8.80;;;13.10;99.90;;;;;;4991299;28;20594;-55
2022/09/15 05:48:11;;;;;;;13.43;8.68;;;13.10;99.90;;;;;;4991339;28;20053;-53
2022/09/15 05:50:38;;;;;;;14.23;9.15;;;13.10;99.90;;;;;;4991345;28;20679;-49
2022/09/15 05:53:04;;;;;;;15.32;9.82;;;13.10;99.90;;;;;;5004912;28;20509;-45
2022/09/15 05:55:35;;;;;;;16.52;9.40;;;13.10;99.90;;;;;;5010975;28;20030;-48
2022/09/15 05:58:00;;;;;;;13.40;9.50;;;13.10;99.90;;;;;;5010978;28;20429;-49
2022/09/15 06:00:27;;;;;;;13.55;9.63;;;13.10;99.90;;;;;;5010875;28;20042;-47
2022/09/15 06:02:52;;;;;;;14.55;9.70;;;13.10;99.90;;;;;;5011039;28;20014;-48
2022/09/15 06:05:18;;;;;;;16.17;10.02;;;13.10;99.90;;;;;;5010829;28;20033;-47
2022/09/15 06:07:43;;;;;;;13.57;9.73;;;13.10;99.90;;;;;;5010989;28;20026;-48
2022/09/15 06:10:09;;;;;;;15.35;10.23;;;13.20;99.90;;;;;;5010562;28;20046;-47
2022/09/15 06:12:35;;;;;;;13.18;10.38;;;13.20;99.90;;;;;;5013764;28;20441;-45
2022/09/15 06:15:01;;;;;;;14.65;10.63;;;13.20;99.90;;;;;;5014871;28;20129;-47
2022/09/15 06:17:27;;;;;;;14.88;10.30;;;13.20;99.90;;;;;;5014551;28;20469;-48
2022/09/15 06:19:53;;;;;;;15.98;10.50;;;13.20;99.90;;;;;;5014698;28;20134;-45
2022/09/15 06:22:19;;;;;;;15.60;9.90;;;13.30;99.90;;;;;;5014352;28;20393;-45
2022/09/15 06:24:45;;;;;;;15.45;10.55;;;13.30;99.90;;;;;;5014600;28;20014;-46
2022/09/15 06:27:10;;;;;;;14.77;10.32;;;13.40;99.90;;;;;;5014269;28;20100;-46
2022/09/15 06:29:36;;;;;;;18.17;10.48;;;13.40;99.90;;;;;;5008919;28;20424;-44
2022/09/15 06:32:02;;;;;;;14.02;9.88;;;13.40;99.90;;;;;;5014243;28;20038;-44
2022/09/15 06:34:28;;;;;;;15.88;9.77;;;13.50;99.90;;;;;;4995427;28;20025;-49
2022/09/15 06:36:54;;;;;;;16.55;10.73;;;13.50;99.90;;;;;;5014496;28;20026;-47
2022/09/15 06:39:20;;;;;;;16.30;11.15;;;13.50;99.90;;;;;;5014070;28;20069;-46
2022/09/15 06:41:46;;;;;;;18.65;10.60;;;13.60;99.90;;;;;;5013027;28;20073;-47
2022/09/15 06:44:12;;;;;;;15.85;11.40;;;13.70;99.90;;;;;;5010082;28;20022;-45
2022/09/15 06:46:37;;;;;;;15.90;11.13;;;13.70;99.90;;;;;;5009818;28;20036;-53
2022/09/15 06:49:03;;;;;;;20.00;10.95;;;13.70;99.90;;;;;;5011803;28;20029;-48
2022/09/15 06:51:34;;;;;;;19.23;11.30;;;13.80;99.90;;;;;;5011160;28;20025;-47
2022/09/15 06:54:02;;;;;;;19.45;11.82;;;13.80;99.90;;;;;;5010904;28;20477;-47
2022/09/15 06:56:28;;;;;;;15.63;10.75;;;13.80;99.90;;;;;;5011211;28;20037;-55
2022/09/15 06:58:57;;;;;;;19.70;11.05;;;13.90;99.90;;;;;;5005547;28;20390;-49
2022/09/15 07:01:24;;;;;;;16.52;9.93;;;14.00;99.90;;;;;;5001014;28;20549;-50
2022/09/15 07:03:50;;;;;;;14.80;10.57;;;14.00;99.90;;;;;;5003876;28;20092;-52
2022/09/15 07:06:16;;;;;;;17.25;11.18;;;14.00;99.90;;;;;;4994155;28;20031;-46
2022/09/15 07:08:42;;;;;;;14.93;10.75;;;14.10;99.90;;;;;;4993858;28;20022;-50
2022/09/15 07:11:09;;;;;;;16.10;10.55;;;14.20;99.90;;;;;;5003693;28;20050;-49
2022/09/15 07:13:35;;;;;;;17.58;11.50;;;14.20;99.90;;;;;;4993973;28;20030;-44
2022/09/15 07:16:02;;;;;;;16.70;10.30;;;14.30;99.90;;;;;;4993867;28;20041;-50
2022/09/15 07:18:29;;;;;;;14.88;11.00;;;14.40;99.90;;;;;;4994042;28;20022;-46
2022/09/15 07:21:06;;;;;;;19.65;11.50;;;14.40;99.90;;;;;;4993627;28;20030;-54
2022/09/15 07:23:33;;;;;;;18.27;11.05;;;14.50;99.90;;;;;;5005395;28;20085;-49
2022/09/15 07:26:14;;;;;;;16.95;10.65;;;14.50;99.90;;;;;;5010428;28;20018;-47
2022/09/15 07:28:41;;;;;;;14.93;9.55;;;14.60;99.90;;;;;;5012138;28;20386;-44
2022/09/15 07:31:09;;;;;;;17.70;9.68;;;14.70;99.90;;;;;;5011975;28;20054;-45
2022/09/15 07:33:35;;;;;;;14.35;9.55;;;14.70;99.90;;;;;;5002318;28;20030;-47
2022/09/15 07:36:05;;;;;;;12.88;9.18;;;14.80;99.90;;;;;;4997227;28;20034;-44
2022/09/15 07:38:31;;;;;;;17.25;9.65;;;14.80;99.90;;;;;;5011372;28;20426;-51
2022/09/15 07:41:24;;;;;;;16.00;9.90;;;14.90;99.90;;;;;;5005462;28;20252;-44
2022/09/15 07:43:52;;;;;;;16.30;9.75;;;15.00;99.90;;;;;;5008519;28;20515;-50
2022/09/15 07:46:19;;;;;;;14.15;9.23;;;15.10;99.90;;;;;;5009486;28;20061;-48
2022/09/15 07:48:47;;;;;;;15.73;9.77;;;15.20;99.90;;;;;;5011644;28;20030;-45
2022/09/15 07:51:14;;;;;;;17.23;9.60;;;15.40;99.90;;;;;;5005636;28;20022;-52
2022/09/15 07:53:40;;;;;;;12.40;9.50;;;15.50;99.90;;;;;;5010913;28;20492;-48
2022/09/15 07:56:06;;;;;;;15.88;9.52;;;15.50;99.90;;;;;;5009614;28;20026;-47
2022/09/15 07:58:32;;;;;;;13.13;9.38;;;15.60;99.90;;;;;;5006200;28;20032;-45
2022/09/15 08:01:06;;;;;;;14.25;8.88;;;15.80;99.90;;;;;;5007296;28;20456;-48
2022/09/15 08:03:32;;;;;;;16.02;8.55;;;15.90;99.90;;;;;;5008382;28;20053;-48
2022/09/15 08:06:02;;;;;;;12.82;9.43;;;16.10;99.90;;;;;;5006370;28;20034;-44
2022/09/15 08:08:28;;;;;;;13.57;8.48;;;16.20;99.90;;;;;;5004369;28;20032;-49
2022/09/15 08:10:54;;;;;;;16.00;9.48;;;16.30;99.90;;;;;;5004728;28;20066;-45
2022/09/15 08:13:20;;;;;;;12.00;8.52;;;16.40;99.90;;;;;;5004429;28;20512;-45
2022/09/15 08:15:47;;;;;;;11.82;8.57;;;16.50;99.90;;;;;;5007442;28;20021;-49
2022/09/15 08:18:13;;;;;;;10.85;7.95;;;16.70;99.90;;;;;;5009348;28;20548;-46
2022/09/15 08:20:40;;;;;;;12.38;7.22;;;16.80;99.90;;;;;;5006965;28;20172;-55
2022/09/15 08:23:06;;;;;;;14.07;8.75;;;17.00;99.90;;;;;;5003102;28;20076;-49
2022/09/15 08:25:32;;;;;;;14.02;8.68;;;17.00;99.90;;;;;;5006690;28;20036;-47
2022/09/15 08:27:58;;;;;;;11.63;7.63;;;17.20;99.90;;;;;;5009650;28;20491;-46
2022/09/15 08:30:25;;;;;;;13.00;7.72;;;17.30;99.90;;;;;;5008425;28;20046;-53
2022/09/15 08:32:51;;;;;;;10.68;7.95;;;17.40;99.90;;;;;;5008178;28;20392;-46
2022/09/15 08:35:18;;;;;;;10.43;6.90;;;17.50;99.90;;;;;;5001567;28;20018;-51
2022/09/15 08:37:44;;;;;;;10.73;6.97;;;17.60;99.90;;;;;;5002101;28;20586;-51
2022/09/15 08:40:17;;;;;;;11.27;6.68;;;17.70;99.90;;;;;;4993903;28;20029;-43
2022/09/15 08:42:47;;;;;;;12.05;6.97;;;18.00;99.90;;;;;;4997866;28;20063;-50
2022/09/15 08:45:23;;;;;;;8.65;6.90;;;18.10;99.90;;;;;;4996538;28;20030;-49
2022/09/15 08:47:54;;;;;;;9.82;6.78;;;18.30;99.90;;;;;;4992008;28;20034;-54
2022/09/15 08:50:30;;;;;;;8.73;6.40;;;18.40;99.90;;;;;;5005945;28;20057;-45
2022/09/15 08:53:01;;;;;;;9.23;6.50;;;18.40;99.90;;;;;;5007630;28;20041;-51
2022/09/15 08:55:36;;;;;;;9.32;5.45;;;18.40;99.90;;;;;;5001213;28;20030;-48
2022/09/15 08:58:02;;;;;;;10.90;5.72;;;18.50;99.90;;;;;;5002121;28;20065;-49
2022/09/15 09:00:30;;;;;;;9.27;5.57;;;18.60;99.90;;;;;;4992627;28;20038;-50
2022/09/15 09:03:15;;;;;;;9.07;5.05;;;18.60;99.90;;;;;;5001297;28;20017;-45
2022/09/15 09:05:46;;;;;;;10.50;5.13;;;18.50;99.90;;;;;;4998163;28;20041;-43
2022/09/15 09:08:47;;;;;;;7.90;4.93;;;18.50;99.90;;;;;;4974458;28;20041;-52
2022/09/15 09:11:36;;;;;;;8.23;4.22;;;18.30;99.90;;;;;;4990700;28;20050;-46
2022/09/15 09:14:20;;;;;;;5.85;3.63;;;18.30;99.90;;;;;;5005911;28;20065;-45
2022/09/15 09:16:57;;;;;;;9.73;3.88;;;18.20;99.90;;;;;;4999242;28;20137;-48
2022/09/15 09:19:45;;;;;;;6.63;3.80;;;18.20;99.90;;;;;;4994038;28;20478;-52
2022/09/15 09:22:16;;;;;;;7.78;3.70;;;18.20;99.90;;;;;;5002720;28;20034;-44
2022/09/15 09:24:51;;;;;;;11.63;4.43;;;18.10;99.90;;;;;;4994180;28;20464;-45
2022/09/15 09:27:23;;;;;;;8.75;3.72;;;17.90;99.90;;;;;;5001758;28;20520;-46
2022/09/15 09:29:53;;;;;;;8.00;3.72;;;17.90;99.90;;;;;;4997380;28;20105;-47
2022/09/15 09:32:24;;;;;;;6.55;3.50;;;17.70;99.90;;;;;;5004732;28;20176;-53
2022/09/15 09:35:13;;;;;;;8.35;3.50;;;17.70;99.90;;;;;;5000609;28;20029;-49
2022/09/15 09:37:39;;;;;;;;;;;17.60;99.90;;;;;;4991776;28;20077;-56
2022/09/15 09:40:05;;;;;;;5.35;2.97;;;17.60;99.90;;;;;;4996675;28;19965;-46
2022/09/15 09:42:35;;;;;;;6.20;3.85;;;17.60;99.90;;;;;;5001744;28;20066;-47
2022/09/15 09:45:02;;;;;;;12.38;3.40;;;17.60;99.90;;;;;;4988422;28;20033;-53
2022/09/15 09:47:28;;;;;;;7.47;3.22;;;17.60;99.90;;;;;;5004603;28;20025;-52
2022/09/15 09:49:54;;;;;;;9.32;3.60;;;17.60;99.90;;;;;;5009870;28;20041;-51
2022/09/15 09:52:46;;;;;;;7.32;3.90;;;17.60;99.90;;;;;;5008557;28;20425;-54
2022/09/15 09:55:30;;;;;;;7.93;3.97;;;17.40;99.90;;;;;;5001355;28;20088;-55
2022/09/15 09:58:13;;;;;;;7.13;3.60;;;17.40;99.90;;;;;;5011170;28;20504;-49
2022/09/15 10:00:39;;;;;;;6.72;3.88;;;17.30;99.90;;;;;;5003718;28;20121;-56
2022/09/15 10:03:23;;;;;;;8.32;3.35;;;17.40;99.90;;;;;;5011989;28;20125;-49
2022/09/15 10:06:09;;;;;;;6.72;3.17;;;17.40;99.90;;;;;;5012754;28;20088;-53
2022/09/15 10:08:36;;;;;;;9.63;3.67;;;17.30;99.90;;;;;;5011364;28;20481;-50
2022/09/15 10:11:05;;;;;;;8.05;3.60;;;17.30;99.90;;;;;;5012262;28;20050;-55
2022/09/15 10:13:48;;;;;;;7.60;3.50;;;17.20;99.90;;;;;;5009362;28;20030;-57
2022/09/15 10:16:18;;;;;;;7.70;3.55;;;17.30;99.90;;;;;;4992909;28;20397;-51
2022/09/15 10:18:44;;;;;;;7.47;3.35;;;17.30;99.90;;;;;;5010463;28;20017;-57
2022/09/15 10:21:13;;;;;;;8.38;3.60;;;17.30;99.90;;;;;;5011000;28;20041;-48
2022/09/15 10:23:39;;;;;;;6.38;3.40;;;17.40;99.90;;;;;;5011363;28;20120;-57
2022/09/15 10:26:18;;;;;;;8.73;3.25;;;17.50;99.90;;;;;;5011666;28;20104;-58
2022/09/15 10:29:04;;;;;;;6.90;3.10;;;17.40;99.90;;;;;;5012798;28;20026;-57
2022/09/15 10:31:31;;;;;;;6.32;3.05;;;17.50;99.90;;;;;;5009873;28;20033;-46
2022/09/15 10:33:57;;;;;;;9.23;3.50;;;17.60;99.90;;;;;;5009507;28;20025;-55
2022/09/15 10:36:29;;;;;;;10.30;3.30;;;17.50;99.90;;;;;;5010864;28;20022;-49
2022/09/15 10:39:22;;;;;;;8.35;3.17;;;17.50;99.90;;;;;;5010979;28;20025;-51
2022/09/15 10:42:17;;;;;;;7.63;3.08;;;17.50;99.90;;;;;;5006017;28;20050;-47
2022/09/15 10:45:06;;;;;;;8.93;3.40;;;17.60;99.90;;;;;;5010983;28;20026;-56
2022/09/15 10:47:46;;;;;;;6.95;3.22;;;17.60;99.90;;;;;;5011557;28;20033;-54
2022/09/15 10:50:20;;;;;;;6.32;2.97;;;17.70;99.90;;;;;;5009683;28;20021;-53
2022/09/15 10:52:54;;;;;;;8.15;2.92;;;17.90;99.90;;;;;;5006469;28;20127;-50
2022/09/15 10:55:48;;;;;;;10.95;3.10;;;17.90;99.90;;;;;;5010516;28;20072;-48
2022/09/15 10:58:14;;;;;;;8.60;2.88;;;18.00;99.90;;;;;;5004180;28;20033;-46
2022/09/15 11:00:48;;;;;;;7.50;2.80;;;18.10;99.90;;;;;;5007627;28;20034;-48
2022/09/15 11:03:50;;;;;;;7.50;3.10;;;18.30;99.90;;;;;;5009619;28;20144;-53
2022/09/15 11:06:16;;;;;;;7.53;2.78;;;18.30;99.90;;;;;;4980029;28;20045;-45
2022/09/15 11:09:02;;;;;;;7.55;3.10;;;18.30;99.90;;;;;;5004439;28;20028;-46
2022/09/15 11:11:40;;;;;;;7.57;3.25;;;18.40;99.90;;;;;;5008920;28;20486;-48
2022/09/15 11:14:37;;;;;;;7.93;2.88;;;18.50;99.90;;;;;;5005316;28;20061;-45
2022/09/15 11:17:08;;;;;;;9.25;2.88;;;18.70;99.90;;;;;;5008684;28;20029;-51
2022/09/15 11:20:03;;;;;;;10.02;2.97;;;18.80;99.90;;;;;;5010200;28;20096;-46
2022/09/15 11:22:43;;;;;;;6.15;2.53;;;19.00;99.90;;;;;;5009030;28;20041;-46
2022/09/15 11:25:14;;;;;;;8.65;3.40;;;18.90;99.90;;;;;;4990606;28;20026;-49
2022/09/15 11:27:54;;;;;;;10.00;2.97;;;19.20;99.90;;;;;;5006880;28;20030;-48
2022/09/15 11:30:23;;;;;;;13.45;3.92;;;19.10;99.90;;;;;;5005194;28;20084;-45
2022/09/15 11:32:54;;;;;;;7.80;3.03;;;19.10;99.90;;;;;;5004760;28;20030;-48
2022/09/15 11:35:38;;;;;;;8.30;3.30;;;19.00;99.90;;;;;;5002716;28;20029;-50
2022/09/15 11:38:36;;;;;;;5.60;2.72;;;19.10;99.90;;;;;;5006518;28;20037;-53
2022/09/15 11:41:34;;;;;;;7.82;2.75;;;19.40;99.90;;;;;;5003564;28;20190;-46
2022/09/15 11:44:05;;;;;;;6.80;3.08;;;19.70;99.90;;;;;;5010461;28;20384;-49
2022/09/15 11:46:52;;;;;;;7.95;2.70;;;20.00;99.90;;;;;;4992187;28;20027;-51
2022/09/15 11:49:22;;;;;;;6.18;2.50;;;20.20;99.90;;;;;;4998243;28;20023;-56
2022/09/15 11:52:21;;;;;;;6.53;2.50;;;20.30;99.90;;;;;;4992692;28;20428;-58
2022/09/15 11:55:27;;;;;;;8.35;2.13;;;20.70;99.90;;;;;;4973204;28;20055;-54
2022/09/15 11:58:08;;;;;;;9.20;2.55;;;21.00;99.90;;;;;;4940236;28;20026;-54
2022/09/15 12:00:41;;;;;;;4.93;2.20;;;21.60;99.90;;;;;;5001461;28;20402;-56
2022/09/15 12:03:20;;;;;;;5.20;2.10;;;22.10;99.90;;;;;;4994432;28;20030;-54
2022/09/15 12:06:13;;;;;;;6.97;2.30;;;22.40;99.90;;;;;;4993201;28;20042;-54
2022/09/15 12:09:00;;;;;;;6.05;2.60;;;22.90;99.90;;;;;;4991786;28;20092;-51
2022/09/15 12:11:29;;;;;;;6.55;2.22;;;23.10;99.90;;;;;;4992792;28;20140;-58
2022/09/15 12:13:57;;;;;;;9.70;2.30;;;23.40;99.90;;;;;;4999610;28;20074;-42
2022/09/15 12:16:24;;;;;;;6.22;2.60;;;23.40;99.90;;;;;;4986871;28;20053;-58
2022/09/15 12:19:04;;;;;;;4.57;2.20;;;23.50;99.90;;;;;;5003787;28;20413;-46
2022/09/15 12:21:30;;;;;;;8.30;2.80;;;23.90;99.90;;;;;;5005860;28;20366;-46
2022/09/15 12:24:17;;;;;;;6.50;2.28;;;24.40;99.90;;;;;;5007536;28;20387;-51
2022/09/15 12:26:45;;;;;;;5.60;2.30;;;24.60;98.20;;;;;;5008632;28;20040;-45
2022/09/15 12:29:26;;;;;;;6.68;2.38;;;24.30;97.60;;;;;;5005603;28;20464;-51
2022/09/15 12:32:18;;;;;;;8.65;2.38;;;23.40;98.00;;;;;;5005999;28;20028;-52
2022/09/15 12:34:59;;;;;;;4.65;2.60;;;22.80;99.90;;;;;;4991172;28;20087;-47
2022/09/15 12:37:36;;;;;;;5.60;2.35;;;22.40;99.90;;;;;;5007055;28;20475;-45
2022/09/15 12:40:06;;;;;;;6.47;2.72;;;22.10;99.90;;;;;;5004282;28;20026;-49
2022/09/15 12:42:34;;;;;;;8.70;2.30;;;21.80;99.90;;;;;;5005735;28;20117;-49
2022/09/15 12:45:19;;;;;;;6.97;2.30;;;21.60;99.90;;;;;;5009109;28;20025;-53
2022/09/15 12:47:51;;;;;;;6.55;2.15;;;21.40;99.90;;;;;;4999774;28;20035;-48
2022/09/15 12:50:37;;;;;;;3.00;1.60;;;21.20;99.90;;;;;;5002249;28;20026;-46
2022/09/15 12:53:12;;;;;;;5.32;2.05;;;21.20;99.90;;;;;;5006736;28;20497;-49
2022/09/15 12:55:49;;;;;;;4.53;1.80;;;21.30;99.90;;;;;;5006673;28;20049;-46
2022/09/15 12:58:18;;;;;;;5.78;1.83;;;21.00;99.90;;;;;;5003975;28;20041;-46
2022/09/15 13:00:44;;;;;;;;;;;21.00;99.90;;;;;;5005377;28;20033;-46
2022/09/15 13:03:48;;;;;;;5.78;1.95;;;21.00;99.90;;;;;;5008609;28;19924;-45
2022/09/15 13:06:27;;;;;;;5.28;2.25;;;20.80;99.90;;;;;;5007414;28;20397;-46